createdAt,value
2023-02-03T00:00:51.004Z,72.84
2023-02-03T00:03:17.554Z,72.79
2023-02-03T00:05:44.491Z,73.58
2023-02-03T00:08:11.247Z,72.71
2023-02-03T00:10:39.523Z,72.65
2023-02-03T00:13:07.065Z,72.60
2023-02-03T00:15:33.592Z,73.89
2023-02-03T00:18:00.120Z,72.97
2023-02-03T00:20:27.016Z,71.94
2023-02-03T00:22:53.764Z,72.44
2023-02-03T00:25:21.418Z,72.14
2023-02-03T00:27:47.961Z,71.28
2023-02-03T00:30:14.496Z,70.99
2023-02-03T00:32:41.443Z,71.49
2023-02-03T00:35:08.158Z,70.27
2023-02-03T00:37:36.395Z,71.58
2023-02-03T00:40:03.046Z,71.83
2023-02-03T00:42:31.465Z,72.33
2023-02-03T00:44:57.982Z,71.31
2023-02-03T00:47:24.494Z,73.34
2023-02-03T00:49:51.015Z,72.62
2023-02-03T00:52:17.675Z,71.69
2023-02-03T00:54:44.211Z,69.92
2023-02-03T00:57:11.033Z,71.64
2023-02-03T00:59:38.976Z,69.51
2023-02-03T01:02:05.692Z,71.40
2023-02-03T01:04:32.218Z,65.85
2023-02-03T01:06:59.845Z,72.24
2023-02-03T01:09:26.819Z,69.22
2023-02-03T01:11:54.123Z,68.96
2023-02-03T01:14:20.683Z,72.07
2023-02-03T01:16:47.255Z,73.23
2023-02-03T01:19:14.733Z,73.50
2023-02-03T01:21:41.260Z,65.16
2023-02-03T01:24:09.597Z,65.50
2023-02-03T01:26:39.064Z,68.18
2023-02-03T01:29:05.573Z,64.52
2023-02-03T01:31:39.954Z,66.76
2023-02-03T01:34:10.907Z,72.04
2023-02-03T01:36:37.854Z,70.69
2023-02-03T01:39:06.008Z,73.18
2023-02-03T01:41:37.568Z,73.62
2023-02-03T01:44:35.317Z,71.08
2023-02-03T01:47:03.817Z,71.95
2023-02-03T01:49:36.578Z,72.14
2023-02-03T01:52:04.650Z,72.24
2023-02-03T01:54:37.497Z,71.28
2023-02-03T01:57:10.389Z,71.16
2023-02-03T01:59:37.276Z,72.34
2023-02-03T02:02:06.562Z,68.58
2023-02-03T02:05:16.025Z,73.28
2023-02-03T02:07:44.187Z,74.01
2023-02-03T02:10:11.204Z,73.06
2023-02-03T02:12:38.003Z,71.59
2023-02-03T02:15:05.353Z,69.71
2023-02-03T02:17:53.218Z,69.25
2023-02-03T02:20:25.923Z,70.35
2023-02-03T02:23:25.717Z,71.51
2023-02-03T02:26:33.579Z,71.36
2023-02-03T02:29:36.588Z,71.19
2023-02-03T02:32:28.042Z,71.64
2023-02-03T02:35:21.835Z,72.11
2023-02-03T02:37:59.016Z,72.14
2023-02-03T02:41:14.974Z,71.01
2023-02-03T02:43:47.337Z,71.37
2023-02-03T02:46:19.180Z,71.85
2023-02-03T02:48:57.318Z,71.62
2023-02-03T02:51:24.413Z,71.90
2023-02-03T02:54:02.454Z,69.73
2023-02-03T02:56:32.455Z,70.59
2023-02-03T02:59:03.884Z,69.40
2023-02-03T03:01:30.927Z,65.79
2023-02-03T03:04:02.144Z,63.58
2023-02-03T03:06:34.053Z,63.31
2023-02-03T03:09:08.088Z,66.87
2023-02-03T03:11:48.488Z,64.00
2023-02-03T03:14:19.277Z,63.99
2023-02-03T03:16:54.381Z,69.93
2023-02-03T03:19:24.918Z,72.19
2023-02-03T03:21:57.415Z,72.93
2023-02-03T03:24:34.565Z,67.73
2023-02-03T03:27:14.391Z,65.83
2023-02-03T03:29:47.522Z,66.66
2023-02-03T03:32:14.533Z,68.50
2023-02-03T03:34:42.290Z,67.81
2023-02-03T03:37:20.279Z,69.43
2023-02-03T03:39:54.001Z,71.72
2023-02-03T03:42:31.762Z,71.30
2023-02-03T03:45:16.653Z,71.25
2023-02-03T03:47:59.320Z,69.14
2023-02-03T03:50:31.309Z,68.92
2023-02-03T03:53:02.015Z,69.39
2023-02-03T03:55:31.894Z,67.51
2023-02-03T03:58:05.668Z,68.94
2023-02-03T04:00:35.371Z,69.51
2023-02-03T04:03:19.534Z,70.38
2023-02-03T04:05:46.355Z,70.61
2023-02-03T04:08:12.934Z,70.76
2023-02-03T04:10:42.031Z,70.77
2023-02-03T04:13:10.005Z,69.61
2023-02-03T04:15:37.197Z,70.10
2023-02-03T04:18:04.649Z,69.08
2023-02-03T04:20:33.026Z,70.14
2023-02-03T04:22:59.594Z,70.89
2023-02-03T04:25:26.553Z,71.19
2023-02-03T04:27:53.201Z,70.56
2023-02-03T04:30:19.808Z,70.17
2023-02-03T04:32:47.147Z,70.64
2023-02-03T04:35:14.427Z,70.92
2023-02-03T04:37:41.440Z,70.82
2023-02-03T04:40:09.015Z,71.16
2023-02-03T04:42:39.304Z,70.54
2023-02-03T04:45:07.956Z,71.54
2023-02-03T04:47:35.303Z,71.47
2023-02-03T04:50:02.136Z,72.17
2023-02-03T04:52:28.794Z,70.98
2023-02-03T04:54:55.384Z,70.84
2023-02-03T04:57:21.908Z,71.77
2023-02-03T04:59:48.779Z,71.44
2023-02-03T05:02:15.563Z,71.83
2023-02-03T05:04:42.062Z,72.93
2023-02-03T05:07:09.630Z,72.23
2023-02-03T05:09:36.145Z,71.90
2023-02-03T05:12:02.793Z,70.63
2023-02-03T05:14:29.342Z,72.90
2023-02-03T05:16:56.050Z,73.40
2023-02-03T05:19:22.648Z,72.29
2023-02-03T05:21:49.137Z,72.63
2023-02-03T05:24:15.683Z,71.96
2023-02-03T05:26:42.235Z,71.91
2023-02-03T05:29:10.043Z,71.93
2023-02-03T05:31:36.584Z,72.85
2023-02-03T05:34:03.298Z,72.09
2023-02-03T05:36:30.053Z,72.43
2023-02-03T05:38:56.674Z,71.86
2023-02-03T05:41:42.054Z,71.65
2023-02-03T05:44:08.581Z,73.00
2023-02-03T05:46:35.109Z,72.06
2023-02-03T05:49:01.598Z,73.31
2023-02-03T05:51:28.366Z,73.05
2023-02-03T05:53:54.865Z,73.00
2023-02-03T05:56:21.565Z,73.91
2023-02-03T05:58:48.067Z,73.30
2023-02-03T06:01:14.585Z,73.17
2023-02-03T06:03:43.235Z,73.64
2023-02-03T06:06:10.948Z,73.53
2023-02-03T06:08:37.910Z,74.42
2023-02-03T06:11:04.569Z,73.79
2023-02-03T06:13:31.393Z,72.76
2023-02-03T06:15:57.926Z,73.60
2023-02-03T06:18:24.572Z,74.07
2023-02-03T06:20:51.139Z,74.23
2023-02-03T06:23:19.039Z,73.62
2023-02-03T06:25:48.431Z,71.63
2023-02-03T06:28:15.305Z,74.02
2023-02-03T06:30:41.986Z,73.32
2023-02-03T06:33:08.712Z,72.37
2023-02-03T06:35:35.561Z,73.24
2023-02-03T06:38:02.147Z,74.68
2023-02-03T06:40:29.179Z,74.07
2023-02-03T06:42:55.965Z,74.43
2023-02-03T06:45:24.029Z,74.77
2023-02-03T06:47:50.564Z,74.49
2023-02-03T06:50:18.163Z,74.46
2023-02-03T06:52:45.133Z,75.14
2023-02-03T06:55:11.757Z,75.73
2023-02-03T06:57:46.648Z,75.55
2023-02-03T07:00:18.160Z,75.60
2023-02-03T07:02:45.978Z,75.15
2023-02-03T07:05:12.544Z,76.37
2023-02-03T07:07:39.483Z,76.06
2023-02-03T07:10:06.653Z,73.33
2023-02-03T07:12:33.265Z,73.09
2023-02-03T07:14:59.757Z,73.36
2023-02-03T07:17:26.255Z,72.65
2023-02-03T07:19:52.784Z,72.92
2023-02-03T07:22:19.321Z,71.83
2023-02-03T07:24:45.832Z,71.72
2023-02-03T07:27:12.681Z,72.33
2023-02-03T07:29:39.598Z,72.61
2023-02-03T07:32:06.208Z,73.70
2023-02-03T07:34:33.091Z,74.43
2023-02-03T07:36:59.862Z,72.81
2023-02-03T07:39:27.731Z,73.91
2023-02-03T07:41:54.431Z,75.53
2023-02-03T07:44:22.735Z,72.58
2023-02-03T07:46:49.276Z,73.55
2023-02-03T07:49:16.398Z,72.60
2023-02-03T07:51:43.384Z,72.79
2023-02-03T07:54:10.055Z,73.47
2023-02-03T07:56:36.620Z,72.37
2023-02-03T07:59:03.645Z,72.52
2023-02-03T08:01:31.333Z,73.08
2023-02-03T08:03:57.998Z,72.89
2023-02-03T08:06:24.792Z,73.68
2023-02-03T08:08:51.295Z,71.75
2023-02-03T08:11:18.210Z,69.37
2023-02-03T08:13:44.716Z,70.49
2023-02-03T08:16:11.568Z,71.78
2023-02-03T08:18:38.461Z,71.72
2023-02-03T08:21:05.251Z,72.40
2023-02-03T08:23:32.012Z,72.49
2023-02-03T08:25:58.790Z,73.06
2023-02-03T08:28:25.358Z,72.72
2023-02-03T08:30:52.341Z,72.08
2023-02-03T08:33:18.897Z,72.29
2023-02-03T08:35:47.362Z,72.13
2023-02-03T08:38:14.007Z,72.03
2023-02-03T08:40:40.536Z,71.69
2023-02-03T08:43:07.351Z,71.58
2023-02-03T08:45:33.934Z,70.82
2023-02-03T08:48:00.603Z,70.81
2023-02-03T08:50:27.463Z,70.75
2023-02-03T08:52:54.171Z,70.11
2023-02-03T08:55:20.832Z,71.54
2023-02-03T08:57:47.345Z,70.35
2023-02-03T09:00:14.434Z,70.81
2023-02-03T09:02:40.930Z,72.92
2023-02-03T09:05:08.349Z,71.83
2023-02-03T09:07:34.973Z,71.49
2023-02-03T09:10:02.074Z,70.38
2023-02-03T09:12:28.555Z,71.42
2023-02-03T09:14:55.545Z,70.48
2023-02-03T09:17:22.114Z,70.73
2023-02-03T09:19:48.735Z,71.34
2023-02-03T09:22:15.356Z,71.35
2023-02-03T09:24:41.937Z,70.65
2023-02-03T09:27:08.521Z,69.83
2023-02-03T09:29:35.061Z,70.62
2023-02-03T09:32:07.003Z,71.70
2023-02-03T09:34:33.724Z,72.09
2023-02-03T09:37:00.259Z,73.12
2023-02-03T09:39:26.889Z,70.87
2023-02-03T09:42:05.767Z,70.47
2023-02-03T09:44:47.571Z,70.65
2023-02-03T09:47:28.614Z,67.88
2023-02-03T09:50:05.282Z,68.49
2023-02-03T09:52:40.538Z,67.42
2023-02-03T09:55:26.950Z,67.50
2023-02-03T09:58:12.251Z,66.47
2023-02-03T10:00:44.796Z,67.25
2023-02-03T10:03:53.926Z,67.95
2023-02-03T10:06:41.677Z,68.09
2023-02-03T10:09:17.808Z,65.93
2023-02-03T10:12:10.808Z,64.95
2023-02-03T10:14:46.665Z,64.04
2023-02-03T10:17:30.216Z,65.02
2023-02-03T10:20:11.497Z,64.17
2023-02-03T10:22:42.930Z,64.39
2023-02-03T10:25:24.551Z,63.78
2023-02-03T10:28:00.032Z,63.60
2023-02-03T10:30:31.944Z,63.97
2023-02-03T10:33:11.580Z,62.42
2023-02-03T10:36:02.534Z,62.81
2023-02-03T10:38:41.578Z,63.50
2023-02-03T10:41:08.611Z,63.63
2023-02-03T10:43:48.153Z,63.39
2023-02-03T10:46:16.486Z,62.86
2023-02-03T10:48:43.058Z,61.31
2023-02-03T10:51:27.422Z,62.18
2023-02-03T10:53:54.236Z,62.53
2023-02-03T10:56:27.242Z,63.05
2023-02-03T10:58:56.595Z,62.40
2023-02-03T11:01:26.249Z,61.37
2023-02-03T11:04:00.124Z,61.80
2023-02-03T11:06:28.256Z,61.90
2023-02-03T11:08:55.507Z,61.20
2023-02-03T11:11:31.190Z,60.90
2023-02-03T11:14:03.638Z,61.07
2023-02-03T11:16:35.031Z,61.45
2023-02-03T11:19:17.483Z,61.33
2023-02-03T11:21:48.493Z,62.20
2023-02-03T11:24:31.687Z,59.74
2023-02-03T11:27:06.751Z,60.11
2023-02-03T11:29:40.211Z,60.35
2023-02-03T11:32:18.150Z,60.23
2023-02-03T11:34:57.367Z,60.20
2023-02-03T11:37:27.228Z,60.37
2023-02-03T11:40:18.172Z,59.55
2023-02-03T11:42:58.893Z,60.35
2023-02-03T11:45:44.352Z,59.61
2023-02-03T11:48:10.990Z,56.70
2023-02-03T11:51:05.082Z,56.55
2023-02-03T11:53:47.843Z,57.82
2023-02-03T11:57:05.080Z,60.51
2023-02-03T11:59:55.423Z,61.19
2023-02-03T12:02:58.238Z,60.10
2023-02-03T12:05:42.654Z,58.59
2023-02-03T12:08:34.980Z,58.11
2023-02-03T12:11:17.596Z,58.48
2023-02-03T12:14:06.514Z,58.79
2023-02-03T12:17:01.478Z,57.71
2023-02-03T12:19:37.293Z,57.01
2023-02-03T12:22:33.535Z,56.25
2023-02-03T12:25:24.866Z,56.37
2023-02-03T12:28:05.887Z,55.33
2023-02-03T12:30:43.384Z,56.43
2023-02-03T12:33:21.251Z,55.23
2023-02-03T12:36:07.999Z,55.71
2023-02-03T12:38:56.940Z,54.22
2023-02-03T12:41:31.489Z,54.73
2023-02-03T12:44:05.096Z,55.34
2023-02-03T12:46:45.564Z,55.43
2023-02-03T12:49:18.432Z,56.30
2023-02-03T12:51:53.908Z,54.97
2023-02-03T12:54:41.848Z,55.34
2023-02-03T12:57:18.268Z,55.25
2023-02-03T12:59:55.065Z,54.71
2023-02-03T13:02:27.168Z,55.35
2023-02-03T13:04:59.647Z,54.96
2023-02-03T13:07:36.029Z,53.88
2023-02-03T13:10:10.250Z,55.55
2023-02-03T13:12:44.831Z,55.96
2023-02-03T13:15:37.233Z,56.46
2023-02-03T13:18:28.322Z,56.72
2023-02-03T13:20:55.537Z,57.19
2023-02-03T13:23:23.591Z,56.64
2023-02-03T13:25:52.721Z,56.57
2023-02-03T13:28:38.350Z,57.46
2023-02-03T13:31:17.145Z,56.66
2023-02-03T13:34:05.676Z,56.96
2023-02-03T13:36:53.216Z,56.56
2023-02-03T13:39:50.710Z,55.33
2023-02-03T13:42:32.312Z,54.49
2023-02-03T13:45:36.726Z,54.68
2023-02-03T13:48:24.559Z,54.29
2023-02-03T13:51:04.039Z,54.18
2023-02-03T13:53:39.004Z,55.50
2023-02-03T13:56:18.811Z,55.03
2023-02-03T13:59:06.236Z,55.03
2023-02-03T14:01:39.021Z,55.18
2023-02-03T14:04:09.244Z,55.14
2023-02-03T14:06:35.798Z,54.50
2023-02-03T14:09:22.228Z,54.64
2023-02-03T14:11:51.030Z,54.80
2023-02-03T14:14:17.499Z,54.54
2023-02-03T14:16:48.816Z,54.71
2023-02-03T14:19:21.433Z,55.17
2023-02-03T14:21:57.260Z,55.28
2023-02-03T14:24:29.765Z,55.17
2023-02-03T14:26:59.501Z,54.82
2023-02-03T14:29:37.302Z,56.02
2023-02-03T14:32:13.748Z,55.53
2023-02-03T14:34:46.557Z,55.05
2023-02-03T14:37:26.451Z,55.22
2023-02-03T14:39:55.782Z,54.87
2023-02-03T14:42:22.825Z,54.84
2023-02-03T14:45:06.778Z,55.35
2023-02-03T14:47:57.908Z,56.23
2023-02-03T14:50:40.039Z,55.59
2023-02-03T14:53:37.382Z,55.93
2023-02-03T14:56:17.187Z,55.18
2023-02-03T14:58:52.651Z,54.70
2023-02-03T15:01:39.659Z,55.30
2023-02-03T15:04:12.385Z,55.99
2023-02-03T15:06:45.096Z,55.38
2023-02-03T15:09:34.754Z,55.63
2023-02-03T15:12:01.572Z,56.49
2023-02-03T15:14:33.368Z,55.60
2023-02-03T15:17:03.003Z,56.74
2023-02-03T15:19:35.225Z,57.17
2023-02-03T15:22:02.072Z,57.02
2023-02-03T15:24:36.665Z,57.52
2023-02-03T15:27:03.337Z,57.39
2023-02-03T15:29:34.062Z,56.92
2023-02-03T15:32:09.737Z,56.00
2023-02-03T15:34:41.568Z,55.56
2023-02-03T15:37:16.603Z,56.00
2023-02-03T15:40:00.277Z,56.57
2023-02-03T15:42:34.238Z,57.04
2023-02-03T15:45:09.201Z,57.11
2023-02-03T15:47:41.537Z,57.42
2023-02-03T15:50:25.155Z,57.21
2023-02-03T15:52:56.712Z,57.20
2023-02-03T15:55:43.078Z,57.78
2023-02-03T15:58:20.464Z,57.56
2023-02-03T16:00:52.657Z,57.66
2023-02-03T16:03:23.001Z,57.83
2023-02-03T16:05:50.443Z,57.18
2023-02-03T16:08:42.728Z,57.77
2023-02-03T16:11:32.718Z,57.07
2023-02-03T16:14:32.723Z,57.47
2023-02-03T16:17:05.330Z,56.42
2023-02-03T16:19:38.040Z,57.77
2023-02-03T16:22:04.976Z,57.44
2023-02-03T16:24:40.427Z,57.67
2023-02-03T16:27:28.761Z,57.07
2023-02-03T16:30:41.812Z,57.25
2023-02-03T16:33:27.227Z,57.30
2023-02-03T16:36:17.298Z,57.35
2023-02-03T16:39:07.170Z,57.31
2023-02-03T16:41:53.669Z,57.43
2023-02-03T16:44:39.264Z,57.12
2023-02-03T16:47:41.730Z,57.64
2023-02-03T16:50:38.299Z,56.87
2023-02-03T16:53:12.304Z,57.55
2023-02-03T16:55:39.065Z,58.21
2023-02-03T16:58:05.807Z,58.42
2023-02-03T17:00:32.843Z,58.04
2023-02-03T17:03:03.595Z,57.88
2023-02-03T17:05:30.531Z,58.72
2023-02-03T17:07:57.312Z,59.89
2023-02-03T17:10:24.578Z,60.68
2023-02-03T17:12:52.614Z,63.98
2023-02-03T17:15:19.365Z,65.99
2023-02-03T17:17:46.082Z,67.52
2023-02-03T17:20:12.967Z,69.10
2023-02-03T17:22:39.615Z,70.48
2023-02-03T17:25:07.701Z,69.33
2023-02-03T17:27:34.479Z,68.64
2023-02-03T17:30:01.240Z,69.31
2023-02-03T17:32:28.018Z,69.96
2023-02-03T17:34:55.747Z,70.54
2023-02-03T17:37:22.293Z,70.82
2023-02-03T17:53:32.242Z,65.46
2023-02-03T17:55:59.457Z,66.00
2023-02-03T17:58:26.567Z,64.48
2023-02-03T18:00:53.148Z,64.67
2023-02-03T18:03:19.774Z,64.01
2023-02-03T18:05:52.587Z,63.24
2023-02-03T18:08:20.529Z,63.61
2023-02-03T18:10:51.041Z,63.09
2023-02-03T18:13:18.400Z,63.77
2023-02-03T18:15:44.900Z,64.30
2023-02-03T18:18:11.509Z,65.05
2023-02-03T18:20:38.046Z,64.88
2023-02-03T18:23:04.780Z,65.14
2023-02-03T18:25:31.550Z,66.21
2023-02-03T18:27:58.415Z,66.82
2023-02-03T18:30:25.948Z,66.36
2023-02-03T18:32:52.607Z,65.58
2023-02-03T18:35:19.682Z,64.32
2023-02-03T18:37:46.619Z,65.46
2023-02-03T18:40:13.775Z,65.18
2023-02-03T18:42:40.336Z,65.63
2023-02-03T18:45:07.240Z,65.81
2023-02-03T18:47:34.213Z,66.06
2023-02-03T18:50:00.789Z,65.26
2023-02-03T18:52:27.525Z,65.49
2023-02-03T18:54:54.285Z,65.51
2023-02-03T18:57:22.456Z,65.88
2023-02-03T18:59:49.458Z,65.70
2023-02-03T19:02:16.003Z,66.35
2023-02-03T19:04:42.922Z,66.18
2023-02-03T19:07:12.160Z,67.07
2023-02-03T19:09:40.870Z,68.08
2023-02-03T19:12:07.926Z,67.27
2023-02-03T19:14:35.577Z,68.02
2023-02-03T19:17:03.572Z,68.26
2023-02-03T19:19:31.664Z,68.41
2023-02-03T19:21:58.491Z,67.12
2023-02-03T19:24:26.963Z,68.10
2023-02-03T19:26:53.788Z,68.27
2023-02-03T19:29:21.555Z,67.73
2023-02-03T19:31:48.539Z,67.09
2023-02-03T19:34:16.602Z,67.58
2023-02-03T19:36:43.679Z,67.34
2023-02-03T19:39:10.703Z,67.90
2023-02-03T19:41:37.429Z,68.17
2023-02-03T19:44:05.653Z,69.13
2023-02-03T19:46:37.235Z,67.56
2023-02-03T19:49:13.307Z,69.29
2023-02-03T19:51:40.938Z,70.34
2023-02-03T19:54:10.334Z,70.20
2023-02-03T19:56:37.043Z,69.78
2023-02-03T19:59:04.574Z,71.57
2023-02-03T20:01:31.533Z,69.55
2023-02-03T20:03:58.446Z,69.37
2023-02-03T20:06:25.712Z,70.67
2023-02-03T20:08:53.350Z,70.41
2023-02-03T20:11:22.192Z,69.20
2023-02-03T20:13:48.965Z,69.81
2023-02-03T20:16:15.727Z,68.94
2023-02-03T20:18:42.232Z,70.06
2023-02-03T20:21:09.516Z,70.63
2023-02-03T20:23:36.710Z,70.35
2023-02-03T20:26:03.911Z,70.37
2023-02-03T20:28:30.539Z,70.85
2023-02-03T20:31:00.447Z,70.50
2023-02-03T20:33:30.430Z,69.80
2023-02-03T20:35:57.554Z,70.19
2023-02-03T20:38:24.801Z,71.04
2023-02-03T20:40:51.449Z,71.19
2023-02-03T20:43:24.951Z,70.04
2023-02-03T20:45:52.378Z,69.94
2023-02-03T20:48:22.166Z,70.82
2023-02-03T20:50:50.091Z,70.83
2023-02-03T20:53:18.079Z,70.66
2023-02-03T20:55:45.409Z,69.57
2023-02-03T20:58:26.697Z,69.29
2023-02-03T21:00:57.146Z,69.86
2023-02-03T21:03:42.646Z,70.18
2023-02-03T21:06:20.423Z,70.65
2023-02-03T21:08:48.153Z,70.79
2023-02-03T21:11:17.045Z,69.80
2023-02-03T21:13:45.600Z,69.71
2023-02-03T21:16:27.452Z,67.47
2023-02-03T21:19:02.874Z,66.52
2023-02-03T21:21:34.980Z,66.75
2023-02-03T21:24:18.014Z,67.86
2023-02-03T21:26:45.025Z,69.63
2023-02-03T21:29:22.271Z,69.66
2023-02-03T21:31:49.197Z,68.85
2023-02-03T21:34:28.625Z,70.21
2023-02-03T21:36:57.143Z,71.14
2023-02-03T21:39:33.162Z,70.67
2023-02-03T21:42:40.736Z,69.93
2023-02-03T21:45:16.961Z,68.62
2023-02-03T21:47:45.590Z,71.80
2023-02-03T21:50:35.163Z,73.03
2023-02-03T21:53:26.935Z,72.64
2023-02-03T21:55:54.161Z,71.72
2023-02-03T21:58:30.297Z,72.61
2023-02-03T22:00:59.088Z,73.28
2023-02-03T22:03:43.130Z,72.83
2023-02-03T22:06:09.575Z,71.90
2023-02-03T22:08:46.737Z,72.06
2023-02-03T22:11:14.576Z,72.56
2023-02-03T22:13:41.715Z,71.91
2023-02-03T22:16:09.521Z,71.10
2023-02-03T22:18:36.284Z,70.65
2023-02-03T22:21:03.381Z,70.63
2023-02-03T22:23:30.159Z,71.00
2023-02-03T22:25:56.638Z,70.14
2023-02-03T22:28:23.151Z,69.97
2023-02-03T22:30:49.740Z,69.21
2023-02-03T22:33:16.542Z,70.06
2023-02-03T22:35:43.037Z,70.45
2023-02-03T22:38:09.583Z,70.49
2023-02-03T22:40:36.090Z,70.89
2023-02-03T22:43:03.057Z,70.41
2023-02-03T22:45:29.877Z,70.26
2023-02-03T22:47:58.303Z,70.97
2023-02-03T22:50:35.001Z,70.30
2023-02-03T22:53:06.965Z,69.17
2023-02-03T22:55:33.579Z,69.39
2023-02-03T22:58:00.249Z,69.37
2023-02-03T23:00:27.400Z,69.90
2023-02-03T23:02:54.876Z,70.06
2023-02-03T23:05:22.186Z,70.10
2023-02-03T23:07:49.844Z,69.96
2023-02-03T23:10:22.960Z,69.38
2023-02-03T23:12:50.142Z,68.91
2023-02-03T23:15:18.146Z,69.19
2023-02-03T23:17:45.090Z,69.19
2023-02-03T23:20:14.095Z,71.21
2023-02-03T23:22:40.625Z,70.72
2023-02-03T23:25:07.541Z,71.01
2023-02-03T23:27:34.029Z,70.87
2023-02-03T23:30:00.639Z,70.61
2023-02-03T23:32:27.224Z,69.76
2023-02-03T23:35:12.558Z,68.61
2023-02-03T23:37:39.587Z,68.06
2023-02-03T23:40:07.151Z,67.98
2023-02-03T23:42:33.699Z,67.69
2023-02-03T23:45:00.242Z,68.08
2023-02-03T23:47:26.788Z,67.21
2023-02-03T23:49:53.308Z,67.50
2023-02-03T23:52:19.818Z,66.58
2023-02-03T23:54:46.766Z,67.21
2023-02-03T23:57:13.571Z,66.88
2023-02-03T23:59:40.331Z,66.19
